Time;durP1;ratioP1;P1;durP2;ratioP2;P2;SDS_P1;SDS_P2;PMS_P1;PMS_P2;Temp;Humidity;BMP_temperature;BMP_pressure;BME280_temperature;BME280_humidity;BME280_pressure;Samples;Min_cycle;Max_cycle;Signal;HPM_P1;HPM_P2
2023/06/30 00:01:32;;;;;;;1999.90;999.90;;;;;;;22.19;100.00;95013.31;5065503;28;20194;-60
2023/06/30 00:03:57;;;;;;;1999.90;999.90;;;;;;;22.13;100.00;95012.50;5065353;28;20213;-60
2023/06/30 00:06:24;;;;;;;1999.90;999.90;;;;;;;22.11;100.00;95012.19;5065302;28;20228;-60
2023/06/30 00:08:49;;;;;;;1999.90;999.90;;;;;;;22.07;100.00;95005.34;5065374;28;20228;-61
2023/06/30 00:11:16;;;;;;;1999.90;999.90;;;;;;;22.06;100.00;94996.22;5065129;28;20198;-60
2023/06/30 00:13:42;;;;;;;1999.90;999.90;;;;;;;22.05;100.00;95005.81;5064945;28;20198;-60
2023/06/30 00:16:07;;;;;;;1999.90;999.90;;;;;;;22.07;100.00;94997.75;5064549;28;20265;-60
2023/06/30 00:18:32;;;;;;;1999.90;999.90;;;;;;;22.10;100.00;94990.44;5064925;28;20256;-60
2023/06/30 00:20:58;;;;;;;1999.90;999.90;;;;;;;22.09;100.00;94989.69;5064839;28;20240;-60
2023/06/30 00:23:27;;;;;;;1999.90;999.90;;;;;;;22.07;100.00;94980.31;5064780;28;20233;-60
2023/06/30 00:25:52;;;;;;;1999.90;999.90;;;;;;;22.08;100.00;94977.00;5064538;28;20209;-60
2023/06/30 00:28:18;;;;;;;1999.90;999.90;;;;;;;22.09;100.00;94973.00;5064224;28;20194;-61
2023/06/30 00:30:44;;;;;;;1999.90;999.90;;;;;;;22.07;100.00;94975.50;5064810;28;20210;-60
2023/06/30 00:33:09;;;;;;;1999.90;999.90;;;;;;;22.07;100.00;94967.13;5064873;28;20190;-61
2023/06/30 00:35:34;;;;;;;1999.90;999.90;;;;;;;22.08;100.00;94965.13;5064817;28;20272;-60
2023/06/30 00:38:00;;;;;;;1999.90;999.90;;;;;;;22.04;100.00;94954.19;5064742;28;20201;-60
2023/06/30 00:40:25;;;;;;;1999.90;999.90;;;;;;;22.06;100.00;94950.94;5064514;28;20221;-60
2023/06/30 00:42:51;;;;;;;1999.90;999.90;;;;;;;22.03;100.00;94949.91;5064278;28;20233;-61
2023/06/30 00:45:16;;;;;;;1999.90;999.90;;;;;;;22.03;100.00;94963.81;5064620;28;20261;-61
2023/06/30 00:47:42;;;;;;;1999.90;999.90;;;;;;;22.02;100.00;94962.28;5064298;28;20194;-60
2023/06/30 00:50:08;;;;;;;1999.90;999.90;;;;;;;22.02;100.00;94967.84;5064689;28;20261;-60
2023/06/30 00:52:33;;;;;;;1999.90;999.90;;;;;;;21.97;100.00;94970.56;5064037;28;20186;-60
2023/06/30 00:54:58;;;;;;;1999.90;999.90;;;;;;;21.92;100.00;94969.25;5064211;28;20217;-60
2023/06/30 00:57:24;;;;;;;1999.90;999.90;;;;;;;21.90;100.00;94965.41;5063937;28;20185;-60
2023/06/30 00:59:49;;;;;;;1999.90;999.90;;;;;;;21.84;100.00;94968.13;5063950;28;20197;-61
2023/06/30 01:02:20;;;;;;;1999.90;999.90;;;;;;;21.79;100.00;94954.94;5064096;28;20300;-60
2023/06/30 01:04:45;;;;;;;1999.90;999.90;;;;;;;21.71;100.00;94956.56;5064284;28;20197;-60
2023/06/30 01:07:31;;;;;;;1999.90;999.90;;;;;;;21.62;100.00;94951.13;5063503;28;20263;-61
2023/06/30 01:10:17;;;;;;;1999.90;999.90;;;;;;;21.47;100.00;94955.97;5064088;28;20194;-61
2023/06/30 01:12:44;;;;;;;1999.90;999.90;;;;;;;21.39;100.00;94949.31;5064015;28;20202;-60
2023/06/30 01:15:10;;;;;;;1999.90;999.90;;;;;;;21.35;100.00;94943.16;5063750;28;20190;-60
2023/06/30 01:17:41;;;;;;;1999.90;999.90;;;;;;;21.31;100.00;94948.16;5063967;28;20193;-60
2023/06/30 01:20:10;;;;;;;1999.90;999.90;;;;;;;21.30;100.00;94943.84;5063700;28;20185;-61
2023/06/30 01:22:42;;;;;;;1999.90;999.90;;;;;;;21.23;100.00;94947.03;5064093;28;20224;-61
2023/06/30 01:25:19;;;;;;;1999.90;999.90;;;;;;;21.21;100.00;94935.66;5064169;28;20200;-60
2023/06/30 01:27:45;;;;;;;1999.90;999.90;;;;;;;21.20;100.00;94942.44;5063706;28;20224;-61
2023/06/30 01:30:11;;;;;;;1999.90;999.90;;;;;;;21.20;100.00;94936.88;5063488;28;20257;-62
2023/06/30 01:32:37;;;;;;;1999.90;999.90;;;;;;;21.18;100.00;94933.84;5063698;28;20206;-61
2023/06/30 01:35:02;;;;;;;1999.90;999.90;;;;;;;21.13;100.00;94942.09;5063735;28;20193;-61
2023/06/30 01:37:28;;;;;;;1999.90;999.90;;;;;;;21.12;100.00;94930.19;5063546;28;20204;-61
2023/06/30 01:39:53;;;;;;;1999.90;999.90;;;;;;;21.11;100.00;94928.69;5063732;28;20193;-61
2023/06/30 01:42:19;;;;;;;1999.90;999.90;;;;;;;21.08;100.00;94926.88;5063398;28;20217;-60
2023/06/30 01:44:45;;;;;;;1999.90;999.90;;;;;;;21.07;100.00;94927.34;5064025;28;20223;-60
2023/06/30 01:47:11;;;;;;;1999.90;999.90;;;;;;;21.00;100.00;94934.06;5063920;28;20196;-61
2023/06/30 01:49:36;;;;;;;1999.90;999.90;;;;;;;20.94;100.00;94933.22;5063664;28;20194;-60
2023/06/30 01:52:02;;;;;;;1999.90;999.90;;;;;;;20.91;100.00;94939.69;5063867;28;20197;-60
2023/06/30 01:54:28;;;;;;;1999.90;999.90;;;;;;;20.89;100.00;94944.19;5063130;28;20199;-61
2023/06/30 01:56:53;;;;;;;1999.90;999.90;;;;;;;20.85;100.00;94944.41;5063426;28;20186;-61
2023/06/30 01:59:19;;;;;;;1999.90;999.90;;;;;;;20.83;100.00;94944.09;5063338;28;20205;-60
2023/06/30 02:01:45;;;;;;;1999.90;999.90;;;;;;;20.77;100.00;94943.28;5063065;28;20202;-60
2023/06/30 02:04:11;;;;;;;1999.90;999.90;;;;;;;20.80;100.00;94931.19;5063503;28;20186;-61
2023/06/30 02:06:36;;;;;;;1999.90;999.90;;;;;;;20.79;100.00;94935.22;5063427;28;20227;-61
2023/06/30 02:09:02;;;;;;;1999.90;999.90;;;;;;;20.77;100.00;94926.63;5063889;28;20268;-60
2023/06/30 02:11:27;;;;;;;1999.90;999.90;;;;;;;20.76;100.00;94929.88;5063636;28;20182;-60
2023/06/30 02:13:53;;;;;;;1999.90;999.90;;;;;;;20.68;100.00;94929.47;5063868;28;20193;-61
2023/06/30 02:16:18;;;;;;;1999.90;999.90;;;;;;;20.69;100.00;94925.44;5063153;28;20189;-61
2023/06/30 02:18:43;;;;;;;1999.90;999.90;;;;;;;20.65;100.00;94922.09;5065079;28;20181;-61
2023/06/30 02:21:08;;;;;;;1999.90;999.90;;;;;;;20.62;100.00;94931.41;5067512;28;20190;-60
2023/06/30 02:23:34;;;;;;;1999.90;999.90;;;;;;;20.59;100.00;94934.38;5067168;28;20209;-60
2023/06/30 02:25:59;;;;;;;1999.90;999.90;;;;;;;20.60;100.00;94933.91;5067403;28;20201;-60
2023/06/30 02:28:25;;;;;;;1999.90;999.90;;;;;;;20.60;100.00;94939.44;5067041;28;20193;-60
2023/06/30 02:30:50;;;;;;;1999.90;999.90;;;;;;;20.57;100.00;94931.31;5067481;28;20221;-60
2023/06/30 02:33:16;;;;;;;1999.90;999.90;;;;;;;20.51;100.00;94927.69;5066733;28;20197;-60
2023/06/30 02:35:41;;;;;;;1999.90;999.90;;;;;;;20.51;100.00;94925.69;5066657;28;20189;-60
2023/06/30 02:38:07;;;;;;;1999.90;999.90;;;;;;;20.50;100.00;94928.94;5066593;28;20185;-60
2023/06/30 02:40:32;;;;;;;1999.90;999.90;;;;;;;20.49;100.00;94933.69;5066548;28;20212;-61
2023/06/30 02:42:58;;;;;;;1999.90;999.90;;;;;;;20.49;100.00;94922.59;5067190;28;20217;-60
2023/06/30 02:45:24;;;;;;;1999.90;999.90;;;;;;;20.47;100.00;94925.06;5066462;28;20221;-60
2023/06/30 02:47:49;;;;;;;1999.90;999.90;;;;;;;20.49;100.00;94922.59;5066641;28;20197;-61
2023/06/30 02:50:15;;;;;;;1999.90;999.90;;;;;;;20.45;100.00;94922.03;5066562;28;20181;-61
2023/06/30 02:52:40;;;;;;;1999.90;999.90;;;;;;;20.46;100.00;94912.47;5066867;28;20200;-60
2023/06/30 02:55:06;;;;;;;1999.90;999.90;;;;;;;20.46;100.00;94912.47;5066417;28;20217;-60
2023/06/30 02:57:31;;;;;;;1999.90;999.90;;;;;;;20.45;100.00;94902.59;5066268;28;20201;-62
2023/06/30 02:59:57;;;;;;;1999.90;999.90;;;;;;;20.45;100.00;94913.72;5066230;28;20190;-60
2023/06/30 03:02:22;;;;;;;1999.90;999.90;;;;;;;20.44;100.00;94908.63;5066304;28;20289;-59
2023/06/30 03:04:47;;;;;;;1999.90;999.90;;;;;;;20.42;100.00;94906.34;5066154;28;20197;-60
2023/06/30 03:07:13;;;;;;;1999.90;999.90;;;;;;;20.38;100.00;94911.31;5066098;28;20194;-60
2023/06/30 03:09:39;;;;;;;1999.90;999.90;;;;;;;20.33;100.00;94920.31;5065970;28;20208;-60
2023/06/30 03:12:04;;;;;;;1999.90;999.90;;;;;;;20.31;100.00;94922.78;5066314;28;20205;-59
2023/06/30 03:14:30;;;;;;;1999.90;999.90;;;;;;;20.34;100.00;94921.06;5066346;28;20193;-60
2023/06/30 03:16:55;;;;;;;1999.90;999.90;;;;;;;20.32;100.00;94913.22;5065948;28;20236;-60
2023/06/30 03:19:20;;;;;;;1999.90;999.90;;;;;;;20.31;100.00;94906.16;5065904;28;20237;-59
2023/06/30 03:21:46;;;;;;;1999.90;999.90;;;;;;;20.26;100.00;94906.81;5066289;28;20202;-60
2023/06/30 03:24:12;;;;;;;1999.90;999.90;;;;;;;20.22;100.00;94903.47;5066450;28;20206;-60
2023/06/30 03:26:37;;;;;;;1999.90;999.90;;;;;;;20.23;100.00;94899.44;5065883;28;20209;-60
2023/06/30 03:29:03;;;;;;;1999.90;999.90;;;;;;;20.27;100.00;94888.94;5065814;28;20206;-59
2023/06/30 03:31:28;;;;;;;1999.90;999.90;;;;;;;20.29;100.00;94897.53;5065627;28;20201;-59
2023/06/30 03:33:54;;;;;;;1999.90;999.90;;;;;;;20.33;100.00;94900.13;5065424;28;20190;-59
2023/06/30 03:36:19;;;;;;;1999.90;999.90;;;;;;;20.32;100.00;94902.13;5065659;28;20240;-60
2023/06/30 03:38:44;;;;;;;1999.90;999.90;;;;;;;20.27;100.00;94916.66;5065593;28;20221;-59
2023/06/30 03:41:10;;;;;;;1999.90;999.90;;;;;;;20.22;100.00;94925.66;5065953;28;20189;-59
2023/06/30 03:43:35;;;;;;;1999.90;999.90;;;;;;;20.07;100.00;94935.16;5065395;28;20201;-60
2023/06/30 03:46:01;;;;;;;1999.90;999.90;;;;;;;19.78;100.00;94930.34;5065417;28;20273;-59
2023/06/30 03:48:26;;;;;;;1999.90;999.90;;;;;;;19.65;100.00;94927.03;5065361;28;20263;-59
2023/06/30 03:50:53;;;;;;;1999.90;999.90;;;;;;;19.58;100.00;94930.16;5065997;28;20198;-60
2023/06/30 03:53:18;;;;;;;1999.90;999.90;;;;;;;19.60;100.00;94924.16;5065711;28;20220;-59
2023/06/30 03:55:44;;;;;;;1999.90;999.90;;;;;;;19.64;100.00;94919.97;5065694;28;20193;-59
2023/06/30 03:58:09;;;;;;;1999.90;999.90;;;;;;;19.64;100.00;94922.75;5064850;28;20224;-59
2023/06/30 04:00:35;;;;;;;1999.90;999.90;;;;;;;19.68;100.00;94920.56;5065375;28;20264;-60
2023/06/30 04:03:00;;;;;;;1999.90;999.90;;;;;;;19.70;100.00;94912.50;5065199;28;20206;-59
2023/06/30 04:05:25;;;;;;;1999.90;999.90;;;;;;;19.65;100.00;94906.84;5065052;28;20216;-61
2023/06/30 04:07:51;;;;;;;1999.90;999.90;;;;;;;19.67;100.00;94902.41;5064970;28;20190;-61
2023/06/30 04:10:16;;;;;;;1999.90;999.90;;;;;;;19.60;100.00;94893.66;5064777;28;20190;-61
2023/06/30 04:12:42;;;;;;;1999.90;999.90;;;;;;;19.55;100.00;94888.78;5064801;28;20276;-60
2023/06/30 04:15:10;;;;;;;1999.90;999.90;;;;;;;19.57;100.00;94872.44;5065273;28;20186;-61
2023/06/30 04:17:35;;;;;;;1999.90;999.90;;;;;;;19.62;100.00;94855.94;5064695;28;20194;-61
2023/06/30 04:20:00;;;;;;;1999.90;999.90;;;;;;;19.62;100.00;94842.06;5064711;28;20273;-61
2023/06/30 04:22:26;;;;;;;1999.90;999.90;;;;;;;19.60;100.00;94829.94;5064898;28;20272;-60
2023/06/30 04:24:51;;;;;;;1999.90;999.90;;;;;;;19.53;100.00;94808.94;5064846;28;20193;-61
2023/06/30 04:27:17;;;;;;;1999.90;999.90;;;;;;;19.48;100.00;94786.66;5064960;28;20229;-61
2023/06/30 04:29:42;;;;;;;1999.90;999.90;;;;;;;19.42;100.00;94764.41;5064741;28;20236;-60
2023/06/30 04:32:08;;;;;;;1999.90;999.90;;;;;;;19.36;100.00;94747.69;5064533;28;20185;-60
2023/06/30 04:34:34;;;;;;;1999.90;999.90;;;;;;;19.29;100.00;94727.88;5065048;28;20320;-67
2023/06/30 04:37:14;;;;;;;1999.90;999.90;;;;;;;19.22;100.00;94689.47;5122783;27;20544;-63
2023/06/30 04:39:42;;;;;;;1999.90;999.90;;;;;;;19.19;100.00;94657.19;5104416;28;20172;-63
2023/06/30 04:42:07;;;;;;;1999.90;999.90;;;;;;;19.18;100.00;94633.50;5104691;28;20191;-63
2023/06/30 04:44:33;;;;;;;1999.90;999.90;;;;;;;19.09;100.00;94615.00;5104425;28;20423;-62
2023/06/30 04:46:58;;;;;;;1999.90;999.90;;;;;;;19.09;100.00;94594.88;5104280;28;20168;-63
2023/06/30 04:49:24;;;;;;;1999.90;999.90;;;;;;;19.08;100.00;94557.31;5104609;28;20288;-62
2023/06/30 04:51:50;;;;;;;1999.90;999.90;;;;;;;19.04;100.00;94529.09;5105000;28;20346;-63
2023/06/30 04:54:15;;;;;;;1999.90;999.90;;;;;;;18.99;100.00;94504.84;5104911;28;20167;-62
2023/06/30 04:56:41;;;;;;;1999.90;999.90;;;;;;;18.99;100.00;94477.94;5104857;28;20204;-63
2023/06/30 04:59:06;;;;;;;1999.90;999.90;;;;;;;19.07;100.00;94439.56;5104421;28;20172;-63
2023/06/30 05:01:32;;;;;;;1999.90;999.90;;;;;;;19.14;100.00;94389.31;5104176;28;20171;-62
2023/06/30 05:03:58;;;;;;;1999.90;999.90;;;;;;;19.25;100.00;94359.81;5104781;28;20175;-62
2023/06/30 05:06:24;;;;;;;1999.90;999.90;;;;;;;19.32;100.00;94344.78;5104238;28;20172;-63
2023/06/30 05:08:50;;;;;;;1999.90;999.90;;;;;;;19.41;100.00;94334.34;5103918;28;20235;-62
2023/06/30 05:11:15;;;;;;;1999.90;999.90;;;;;;;19.49;100.00;94316.03;5104782;28;20192;-63
2023/06/30 05:13:40;;;;;;;1999.90;999.90;;;;;;;19.58;100.00;94317.91;5121074;28;20195;-61
2023/06/30 05:16:06;;;;;;;1999.90;999.90;;;;;;;19.58;100.00;94317.91;5103853;28;20274;-62
2023/06/30 05:18:31;;;;;;;1999.90;999.90;;;;;;;19.48;100.00;94341.44;5104043;28;20281;-62
2023/06/30 05:20:57;;;;;;;1999.90;999.90;;;;;;;19.39;100.00;94355.47;5120928;28;20184;-62
2023/06/30 05:23:23;;;;;;;1999.90;999.90;;;;;;;19.42;100.00;94349.69;5120777;28;20384;-63
2023/06/30 05:25:49;;;;;;;1999.90;999.90;;;;;;;19.41;100.00;94352.94;5107426;28;20183;-65
2023/06/30 05:28:15;;;;;;;1999.90;999.90;;;;;;;19.42;100.00;94349.69;5124403;28;20588;-63
2023/06/30 05:30:40;;;;;;;1999.90;999.90;;;;;;;19.35;100.00;94343.81;5124709;28;20168;-63
2023/06/30 05:33:05;;;;;;;1999.90;999.90;;;;;;;19.39;100.00;94347.16;5124298;28;20171;-63
2023/06/30 05:35:31;;;;;;;1999.90;999.90;;;;;;;19.44;100.00;94335.38;5123797;28;20215;-62
2023/06/30 05:37:56;;;;;;;1999.90;999.90;;;;;;;19.43;100.00;94333.84;5124607;28;20187;-63
2023/06/30 05:40:21;;;;;;;1999.90;999.90;;;;;;;19.43;100.00;94329.09;5124177;28;20360;-62
2023/06/30 05:42:47;;;;;;;1999.90;999.90;;;;;;;19.37;100.00;94336.56;5123818;28;20527;-63
2023/06/30 05:45:12;;;;;;;1999.90;999.90;;;;;;;19.30;100.00;94341.75;5124053;28;20359;-63
2023/06/30 05:47:37;;;;;;;1999.90;999.90;;;;;;;19.34;100.00;94331.25;5116382;28;20393;-63
2023/06/30 05:50:03;;;;;;;1999.90;999.90;;;;;;;19.35;100.00;94330.72;5110215;28;20207;-63
2023/06/30 05:52:28;;;;;;;1999.90;999.90;;;;;;;19.37;100.00;94333.78;5110371;28;20168;-63
2023/06/30 05:54:54;;;;;;;1999.90;999.90;;;;;;;19.40;100.00;94329.28;5109816;28;20209;-63
2023/06/30 05:57:19;;;;;;;1999.90;999.90;;;;;;;19.35;100.00;94330.72;5110143;28;20168;-63
2023/06/30 05:59:45;;;;;;;1999.90;999.90;;;;;;;19.28;100.00;94344.25;5110029;28;20179;-63
2023/06/30 06:02:10;;;;;;;1999.90;999.90;;;;;;;19.27;100.00;94345.50;5110465;28;20349;-63
2023/06/30 06:04:35;;;;;;;1999.90;999.90;;;;;;;19.27;100.00;94342.72;5109991;28;20182;-64
2023/06/30 06:07:03;;;;;;;1999.90;999.90;;;;;;;19.29;100.00;94334.69;5109958;28;20184;-63
2023/06/30 06:09:28;;;;;;;1999.90;999.90;;;;;;;19.35;100.00;94349.38;5110179;28;20168;-63
2023/06/30 06:11:53;;;;;;;1999.90;999.90;;;;;;;19.38;100.00;94349.16;5109569;28;20308;-61
2023/06/30 06:14:19;;;;;;;1999.90;999.90;;;;;;;19.46;100.00;94343.97;5110236;28;20172;-61
2023/06/30 06:16:45;;;;;;;1999.90;999.90;;;;;;;19.51;100.00;94354.34;5109469;28;20257;-61
2023/06/30 06:19:11;;;;;;;1999.90;999.90;;;;;;;19.59;100.00;94357.47;5109347;28;20168;-61
2023/06/30 06:21:37;;;;;;;1999.90;999.90;;;;;;;19.65;100.00;94383.19;5109624;28;20168;-62
2023/06/30 06:24:02;;;;;;;1999.90;999.90;;;;;;;19.71;100.00;94387.56;5109532;28;20172;-62
2023/06/30 06:26:28;;;;;;;1999.90;999.90;;;;;;;19.77;100.00;94379.31;5109640;28;20237;-61
2023/06/30 06:28:53;;;;;;;1999.90;999.90;;;;;;;19.77;100.00;94384.88;5109310;28;20175;-61
2023/06/30 06:31:18;;;;;;;1999.90;999.90;;;;;;;19.81;100.00;94396.50;5109329;28;20168;-62
2023/06/30 06:33:44;;;;;;;1999.90;999.90;;;;;;;19.89;100.00;94401.13;5109344;28;20172;-61
2023/06/30 06:36:10;;;;;;;1999.90;999.90;;;;;;;19.99;100.00;94402.47;5108955;28;20227;-61
2023/06/30 06:38:36;;;;;;;1999.90;999.90;;;;;;;20.09;100.00;94406.63;5109211;28;20168;-62
2023/06/30 06:41:01;;;;;;;1999.90;999.90;;;;;;;20.12;100.00;94405.69;5109567;28;20449;-62
2023/06/30 06:43:27;;;;;;;1999.90;999.90;;;;;;;20.14;100.00;94419.81;5109069;28;20172;-62
2023/06/30 06:45:53;;;;;;;1999.90;999.90;;;;;;;20.20;100.00;94428.97;5108976;28;20389;-62
2023/06/30 06:48:25;;;;;;;1999.90;999.90;;;;;;;20.26;100.00;94451.19;5109548;28;20239;-62
2023/06/30 06:50:51;;;;;;;1999.90;999.90;;;;;;;20.28;100.00;94457.78;5109292;28;20187;-62
2023/06/30 06:53:19;;;;;;;1999.90;999.90;;;;;;;20.27;100.00;94461.81;5108932;28;20168;-62
2023/06/30 06:55:46;;;;;;;1999.90;999.90;;;;;;;20.21;100.00;94463.75;5109048;28;20206;-62
2023/06/30 06:58:12;;;;;;;1999.90;999.90;;;;;;;20.22;100.00;94454.19;5108984;28;20251;-62
2023/06/30 07:00:37;;;;;;;1999.90;999.90;;;;;;;20.17;100.00;94452.09;5108751;28;20199;-62
2023/06/30 07:03:03;;;;;;;1999.90;999.90;;;;;;;20.21;100.00;94440.81;5108733;28;20225;-62
2023/06/30 07:05:28;;;;;;;1999.90;999.90;;;;;;;20.20;100.00;94439.28;5109171;28;20178;-62
2023/06/30 07:07:53;;;;;;;1999.90;999.90;;;;;;;20.27;100.00;94422.97;5108649;28;20457;-62
2023/06/30 07:10:19;;;;;;;1999.90;999.90;;;;;;;20.36;100.00;94414.47;5108657;28;20163;-62
2023/06/30 07:12:44;;;;;;;1999.90;999.90;;;;;;;20.35;100.00;94424.06;5108683;28;20164;-62
2023/06/30 07:15:10;;;;;;;1999.90;999.90;;;;;;;20.35;100.00;94437.94;5109038;28;20222;-62
2023/06/30 07:17:35;;;;;;;1999.90;999.90;;;;;;;20.42;100.00;94445.81;5108520;28;20168;-62
2023/06/30 07:20:00;;;;;;;1999.90;999.90;;;;;;;20.47;100.00;94464.53;5108541;28;20164;-62
2023/06/30 07:22:26;;;;;;;1999.90;999.90;;;;;;;20.52;100.00;94477.69;5108303;28;20191;-62
2023/06/30 07:24:51;;;;;;;1999.90;999.90;;;;;;;20.52;100.00;94488.03;5108501;28;20167;-63
2023/06/30 07:27:16;;;;;;;1999.90;999.90;;;;;;;20.54;100.00;94504.97;5108399;28;20183;-62
2023/06/30 07:29:42;;;;;;;1999.90;999.90;;;;;;;20.41;100.00;94499.78;5107937;28;20176;-62
2023/06/30 07:32:07;;;;;;;1999.90;999.90;;;;;;;20.32;100.00;94491.59;5108675;28;20179;-62
2023/06/30 07:34:33;;;;;;;1999.90;999.90;;;;;;;20.27;100.00;94472.91;5108058;28;20170;-62
2023/06/30 07:37:02;;;;;;;1999.90;999.90;;;;;;;20.22;100.00;94456.97;5126378;28;20291;-63
2023/06/30 07:39:27;;;;;;;1999.90;999.90;;;;;;;20.17;100.00;94441.03;5107810;28;20164;-63
2023/06/30 07:41:53;;;;;;;1999.90;999.90;;;;;;;19.94;100.00;94450.31;5107917;28;20171;-63
2023/06/30 07:44:19;;;;;;;1999.90;999.90;;;;;;;19.88;100.00;94426.56;5107957;28;20243;-65
2023/06/30 07:46:45;;;;;;;1999.90;999.90;;;;;;;19.78;100.00;94417.63;5108077;28;20198;-66
2023/06/30 07:49:10;;;;;;;1999.90;999.90;;;;;;;19.69;100.00;94403.13;5108238;28;20163;-67
2023/06/30 07:51:35;;;;;;;1999.90;999.90;;;;;;;19.61;100.00;94377.09;5107663;28;20232;-66
2023/06/30 07:54:01;;;;;;;1999.90;999.90;;;;;;;19.52;100.00;94353.84;5108349;28;20175;-68
2023/06/30 07:56:26;;;;;;;1999.90;999.90;;;;;;;19.48;100.00;94324.84;5107442;28;20219;-68
2023/06/30 07:58:51;;;;;;;1999.90;999.90;;;;;;;19.44;100.00;94291.06;5108239;28;20179;-68
2023/06/30 08:01:17;;;;;;;1999.90;999.90;;;;;;;19.46;100.00;94280.25;5107743;28;20164;-68
2023/06/30 08:03:42;;;;;;;1999.90;999.90;;;;;;;19.48;100.00;94243.78;5107800;28;20163;-70
2023/06/30 08:06:07;;;;;;;1999.90;999.90;;;;;;;19.30;100.00;94220.69;5108061;28;20225;-69
2023/06/30 08:08:33;;;;;;;1999.90;999.90;;;;;;;19.29;100.00;94204.53;5107980;28;20202;-70
2023/06/30 08:10:58;;;;;;;1999.90;999.90;;;;;;;19.19;100.00;94187.31;5107405;28;20246;-71
2023/06/30 08:13:25;;;;;;;1999.90;999.90;;;;;;;19.20;100.00;94154.84;5107677;28;20272;-70
2023/06/30 08:15:50;;;;;;;1999.90;999.90;;;;;;;19.22;100.00;93817.38;5107487;28;20211;-69
2023/06/30 08:18:16;;;;;;;1999.90;999.90;;;;;;;19.05;100.00;93802.72;5107906;28;20164;-69
2023/06/30 08:20:41;;;;;;;1999.90;999.90;;;;;;;19.06;100.00;93790.41;5108041;28;20174;-70
2023/06/30 08:23:06;;;;;;;1999.90;999.90;;;;;;;19.11;100.00;93781.34;5107479;28;20164;-71
2023/06/30 08:25:32;;;;;;;1999.90;999.90;;;;;;;19.19;100.00;93760.22;5107663;28;20168;-71
2023/06/30 08:27:57;;;;;;;1999.90;999.90;;;;;;;19.16;100.00;93750.91;5107261;28;20209;-71
2023/06/30 08:30:23;;;;;;;1999.90;999.90;;;;;;;19.27;100.00;93744.72;5107434;28;20209;-70
2023/06/30 08:32:48;;;;;;;1999.90;999.90;;;;;;;19.41;100.00;93746.47;5108103;28;20195;-69
2023/06/30 08:35:13;;;;;;;1999.90;999.90;;;;;;;19.40;100.00;93758.81;5107655;28;20215;-69
2023/06/30 08:37:39;;;;;;;1999.90;999.90;;;;;;;19.60;100.00;93761.41;5107810;28;20168;-71
2023/06/30 08:40:05;;;;;;;1999.90;999.90;;;;;;;19.60;100.00;93789.09;5107352;28;20309;-70
2023/06/30 08:42:35;;;;;;;1999.90;999.90;;;;;;;19.64;100.00;93839.47;5106978;28;20217;-70
2023/06/30 08:45:03;;;;;;;1999.90;999.90;;;;;;;19.98;100.00;93863.22;5107262;28;20184;-70
2023/06/30 08:47:32;;;;;;;1999.90;999.90;;;;;;;20.31;100.00;93874.41;5107392;28;20246;-69
2023/06/30 08:49:58;;;;;;;1999.90;999.90;;;;;;;20.49;100.00;93923.84;5107127;28;20186;-68
2023/06/30 08:52:23;;;;;;;1999.90;999.90;;;;;;;20.49;100.00;93984.88;5107204;28;20210;-68
2023/06/30 08:54:49;;;;;;;1999.90;999.90;;;;;;;20.62;100.00;94048.97;5107850;28;20160;-67
2023/06/30 08:57:15;;;;;;;1999.90;999.90;;;;;;;20.91;100.00;94092.16;5106763;28;20204;-67
2023/06/30 08:59:44;;;;;;;1999.90;999.90;;;;;;;21.06;100.00;94135.16;5107196;28;20191;-67
2023/06/30 09:02:12;;;;;;;1999.90;999.90;;;;;;;21.06;100.00;94193.47;5107601;28;20176;-66
2023/06/30 09:04:39;;;;;;;1999.90;999.90;;;;;;;21.10;100.00;94320.94;5107138;28;20251;-66
2023/06/30 09:07:08;;;;;;;1999.90;999.90;;;;;;;21.28;100.00;94326.84;5107001;28;20168;-66
2023/06/30 09:09:37;;;;;;;1999.90;999.90;;;;;;;21.41;100.00;94351.38;5106871;28;20160;-65
2023/06/30 09:12:03;;;;;;;1999.90;999.90;;;;;;;21.49;100.00;94347.63;5106769;28;20164;-66
2023/06/30 09:14:33;;;;;;;1999.90;999.90;;;;;;;21.33;100.00;94440.03;5107029;28;20187;-65
2023/06/30 09:17:00;;;;;;;1999.90;999.90;;;;;;;21.53;100.00;94420.41;5106518;28;20242;-65
2023/06/30 09:19:25;;;;;;;1999.90;999.90;;;;;;;21.68;100.00;94471.03;5106999;28;20191;-66
2023/06/30 09:21:51;;;;;;;1999.90;999.90;;;;;;;21.97;100.00;94442.88;5107208;28;20160;-65
2023/06/30 09:24:16;;;;;;;1999.90;999.90;;;;;;;22.00;100.00;94516.97;5111317;28;20198;-65
2023/06/30 09:26:42;;;;;;;1999.90;999.90;;;;;;;22.12;100.00;94582.56;5110833;28;20191;-65
2023/06/30 09:29:09;;;;;;;1999.90;999.90;;;;;;;22.21;100.00;94587.91;5110748;28;20196;-66
2023/06/30 09:31:35;;;;;;;1999.90;999.90;;;;;;;22.44;100.00;94561.69;5110313;28;20213;-65
2023/06/30 09:34:11;;;;;;;1999.90;999.90;;;;;;;22.40;100.00;94624.44;5110358;28;20168;-67
2023/06/30 09:36:37;;;;;;;1999.90;999.90;;;;;;;22.51;100.00;94634.88;5110064;28;20218;-65
2023/06/30 09:39:05;;;;;;;1999.90;999.90;;;;;;;22.51;100.00;94669.06;5110576;28;20193;-65
2023/06/30 09:41:31;;;;;;;1999.90;999.90;;;;;;;22.68;100.00;94700.50;5111054;28;20168;-65
2023/06/30 09:43:57;;;;;;;1999.90;999.90;;;;;;;22.76;100.00;94712.69;5128495;28;20168;-66
2023/06/30 09:46:23;;;;;;;1999.90;999.90;;;;;;;22.87;100.00;94737.81;5110243;28;20164;-65
2023/06/30 09:48:53;;;;;;;1999.90;999.90;;;;;;;22.98;100.00;94764.97;5110920;28;20244;-65
2023/06/30 09:51:21;;;;;;;1999.90;999.90;;;;;;;23.37;100.00;94805.72;5110421;28;20194;-65
2023/06/30 09:53:46;;;;;;;1999.90;999.90;;;;;;;23.66;100.00;94819.25;5110095;28;20168;-65
2023/06/30 09:56:22;;;;;;;1999.90;999.90;;;;;;;24.24;100.00;94826.00;5110516;28;20241;-65
2023/06/30 09:58:48;;;;;;;1999.90;999.90;;;;;;;24.60;100.00;94864.13;5110235;28;20163;-65
2023/06/30 10:01:18;;;;;;;1999.90;999.90;;;;;;;25.03;100.00;94888.53;5110141;28;20170;-66
2023/06/30 10:03:48;;;;;;;1999.90;999.90;;;;;;;25.49;100.00;94893.56;5109816;28;20198;-63
2023/06/30 10:06:16;;;;;;;1999.90;999.90;;;;;;;25.68;100.00;94883.34;5109717;28;20289;-63
2023/06/30 10:08:43;;;;;;;1999.90;999.90;;;;;;;25.72;100.00;94899.84;5109886;28;20217;-63
2023/06/30 10:11:08;;;;;;;1999.90;999.90;;;;;;;25.53;100.00;94887.72;5110279;28;20196;-65
2023/06/30 10:13:35;;;;;;;1999.90;999.90;;;;;;;25.12;100.00;94902.25;5109828;28;20168;-64
2023/06/30 10:16:01;;;;;;;1999.90;999.90;;;;;;;25.26;100.00;94909.59;5109388;28;20210;-63
2023/06/30 10:18:28;;;;;;;1999.90;999.90;;;;;;;25.40;100.00;94907.81;5127945;28;20272;-62
2023/06/30 10:20:53;;;;;;;1999.90;999.90;;;;;;;24.93;100.00;94920.03;5127495;28;20163;-63
2023/06/30 10:23:22;;;;;;;1999.90;999.90;;;;;;;24.67;100.00;94897.19;5110122;28;20168;-62
2023/06/30 10:25:49;;;;;;;1999.90;999.90;;;;;;;24.46;100.00;94896.63;5110016;28;20192;-62
2023/06/30 10:28:16;;;;;;;1999.90;999.90;;;;;;;24.15;100.00;94896.03;5109603;28;20199;-62
2023/06/30 10:30:42;;;;;;;1999.90;999.90;;;;;;;24.16;100.00;94892.75;5109937;28;20170;-61
2023/06/30 10:33:07;;;;;;;1999.90;999.90;;;;;;;24.15;100.00;94896.78;5109029;28;20205;-62
2023/06/30 10:35:34;;;;;;;1999.90;999.90;;;;;;;23.96;100.00;94901.31;5109018;28;20211;-61
2023/06/30 10:38:00;;;;;;;1999.90;999.90;;;;;;;23.84;100.00;94890.56;5109335;28;20249;-62
2023/06/30 10:40:29;;;;;;;1999.90;999.90;;;;;;;23.68;100.00;94878.09;5109259;28;20179;-61
2023/06/30 10:42:56;;;;;;;1999.90;999.90;;;;;;;23.58;100.00;94859.28;5109275;28;20179;-62